sensor_id;sensor_type;location;lat;lon;timestamp;temperature;humidity
13049;DHT22;6591;51.446;5.404;2023-03-23T00:00:09;14.90;99.90
13049;DHT22;6591;51.446;5.404;2023-03-23T00:02:36;14.20;99.90
13049;DHT22;6591;51.446;5.404;2023-03-23T00:05:04;14.20;99.90
13049;DHT22;6591;51.446;5.404;2023-03-23T00:07:33;14.20;99.90
13049;DHT22;6591;51.446;5.404;2023-03-23T00:10:00;14.20;99.90
13049;DHT22;6591;51.446;5.404;2023-03-23T00:12:30;14.50;99.90
13049;DHT22;6591;51.446;5.404;2023-03-23T00:15:04;14.20;99.90
13049;DHT22;6591;51.446;5.404;2023-03-23T00:17:33;16.40;99.90
13049;DHT22;6591;51.446;5.404;2023-03-23T00:20:00;14.30;99.90
13049;DHT22;6591;51.446;5.404;2023-03-23T00:22:30;15.30;99.90
13049;DHT22;6591;51.446;5.404;2023-03-23T00:24:56;14.30;99.90
13049;DHT22;6591;51.446;5.404;2023-03-23T00:27:23;15.00;99.90
13049;DHT22;6591;51.446;5.404;2023-03-23T00:29:50;14.30;99.90
13049;DHT22;6591;51.446;5.404;2023-03-23T00:32:21;13.00;99.90
13049;DHT22;6591;51.446;5.404;2023-03-23T00:34:54;12.50;99.90
13049;DHT22;6591;51.446;5.404;2023-03-23T00:37:22;14.50;99.90
13049;DHT22;6591;51.446;5.404;2023-03-23T00:39:48;14.40;99.90
13049;DHT22;6591;51.446;5.404;2023-03-23T00:42:15;14.60;99.90
13049;DHT22;6591;51.446;5.404;2023-03-23T00:44:42;14.50;99.90
13049;DHT22;6591;51.446;5.404;2023-03-23T00:47:10;14.40;99.90
13049;DHT22;6591;51.446;5.404;2023-03-23T00:50:51;14.40;99.90
13049;DHT22;6591;51.446;5.404;2023-03-23T00:53:18;14.50;99.90
13049;DHT22;6591;51.446;5.404;2023-03-23T00:55:46;15.50;99.90
13049;DHT22;6591;51.446;5.404;2023-03-23T00:58:13;14.50;99.90
13049;DHT22;6591;51.446;5.404;2023-03-23T01:00:41;14.50;99.90
13049;DHT22;6591;51.446;5.404;2023-03-23T01:03:09;14.60;99.90
13049;DHT22;6591;51.446;5.404;2023-03-23T01:05:44;14.60;99.90
13049;DHT22;6591;51.446;5.404;2023-03-23T01:08:14;14.60;99.90
13049;DHT22;6591;51.446;5.404;2023-03-23T01:10:42;14.60;99.90
13049;DHT22;6591;51.446;5.404;2023-03-23T01:13:10;15.10;99.90
13049;DHT22;6591;51.446;5.404;2023-03-23T01:15:38;14.60;99.90
13049;DHT22;6591;51.446;5.404;2023-03-23T01:18:05;15.70;99.90
13049;DHT22;6591;51.446;5.404;2023-03-23T01:20:32;15.00;99.90
13049;DHT22;6591;51.446;5.404;2023-03-23T01:22:58;14.80;99.90
13049;DHT22;6591;51.446;5.404;2023-03-23T01:25:31;15.20;99.90
13049;DHT22;6591;51.446;5.404;2023-03-23T01:28:00;14.60;99.90
13049;DHT22;6591;51.446;5.404;2023-03-23T01:30:27;14.50;99.90
13049;DHT22;6591;51.446;5.404;2023-03-23T01:32:54;14.50;99.90
13049;DHT22;6591;51.446;5.404;2023-03-23T01:35:21;14.50;99.90
13049;DHT22;6591;51.446;5.404;2023-03-23T01:37:48;16.00;99.90
13049;DHT22;6591;51.446;5.404;2023-03-23T01:40:15;16.00;99.90
13049;DHT22;6591;51.446;5.404;2023-03-23T01:42:42;14.50;99.90
13049;DHT22;6591;51.446;5.404;2023-03-23T01:45:21;16.50;99.90
13049;DHT22;6591;51.446;5.404;2023-03-23T01:47:59;14.50;99.90
13049;DHT22;6591;51.446;5.404;2023-03-23T01:51:17;14.50;99.90
13049;DHT22;6591;51.446;5.404;2023-03-23T01:53:30;14.60;99.90
13049;DHT22;6591;51.446;5.404;2023-03-23T01:56:01;14.60;99.90
13049;DHT22;6591;51.446;5.404;2023-03-23T01:58:31;14.60;99.90
13049;DHT22;6591;51.446;5.404;2023-03-23T02:01:04;14.70;99.90
13049;DHT22;6591;51.446;5.404;2023-03-23T02:03:35;14.60;99.90
13049;DHT22;6591;51.446;5.404;2023-03-23T02:06:02;14.60;99.90
13049;DHT22;6591;51.446;5.404;2023-03-23T02:08:40;14.70;99.90
13049;DHT22;6591;51.446;5.404;2023-03-23T02:11:17;14.70;99.90
13049;DHT22;6591;51.446;5.404;2023-03-23T02:13:46;14.70;99.90
13049;DHT22;6591;51.446;5.404;2023-03-23T02:31:21;14.70;99.90
13049;DHT22;6591;51.446;5.404;2023-03-23T02:36:54;14.80;99.90
13049;DHT22;6591;51.446;5.404;2023-03-23T02:39:45;14.80;99.90
13049;DHT22;6591;51.446;5.404;2023-03-23T02:42:24;14.80;99.90
13049;DHT22;6591;51.446;5.404;2023-03-23T02:44:54;14.70;99.90
13049;DHT22;6591;51.446;5.404;2023-03-23T02:47:25;14.80;99.90
13049;DHT22;6591;51.446;5.404;2023-03-23T02:49:57;14.80;99.90
13049;DHT22;6591;51.446;5.404;2023-03-23T02:52:30;14.90;99.90
13049;DHT22;6591;51.446;5.404;2023-03-23T02:55:00;14.90;99.90
13049;DHT22;6591;51.446;5.404;2023-03-23T02:57:28;14.90;99.90
13049;DHT22;6591;51.446;5.404;2023-03-23T02:59:57;14.90;99.90
13049;DHT22;6591;51.446;5.404;2023-03-23T03:02:36;14.90;99.90
13049;DHT22;6591;51.446;5.404;2023-03-23T03:10:48;14.90;99.90
13049;DHT22;6591;51.446;5.404;2023-03-23T03:13:50;14.90;99.90
13049;DHT22;6591;51.446;5.404;2023-03-23T03:16:35;15.00;99.90
13049;DHT22;6591;51.446;5.404;2023-03-23T03:19:24;14.90;99.90
13049;DHT22;6591;51.446;5.404;2023-03-23T03:21:56;14.90;99.90
13049;DHT22;6591;51.446;5.404;2023-03-23T03:24:36;14.90;99.90
13049;DHT22;6591;51.446;5.404;2023-03-23T03:27:11;14.90;99.90
13049;DHT22;6591;51.446;5.404;2023-03-23T03:29:53;14.90;99.90
13049;DHT22;6591;51.446;5.404;2023-03-23T03:32:34;14.90;99.90
13049;DHT22;6591;51.446;5.404;2023-03-23T03:35:05;14.90;99.90
13049;DHT22;6591;51.446;5.404;2023-03-23T03:37:36;14.90;99.90
13049;DHT22;6591;51.446;5.404;2023-03-23T03:40:07;15.10;99.90
13049;DHT22;6591;51.446;5.404;2023-03-23T03:42:41;15.00;99.90
13049;DHT22;6591;51.446;5.404;2023-03-23T03:45:10;15.00;99.90
13049;DHT22;6591;51.446;5.404;2023-03-23T03:47:41;15.00;99.90
13049;DHT22;6591;51.446;5.404;2023-03-23T03:50:08;15.00;99.90
13049;DHT22;6591;51.446;5.404;2023-03-23T03:52:35;15.00;99.90
13049;DHT22;6591;51.446;5.404;2023-03-23T03:55:01;15.00;99.90
13049;DHT22;6591;51.446;5.404;2023-03-23T03:57:30;15.00;99.90
13049;DHT22;6591;51.446;5.404;2023-03-23T04:00:16;15.00;99.90
13049;DHT22;6591;51.446;5.404;2023-03-23T04:02:48;15.00;99.90
13049;DHT22;6591;51.446;5.404;2023-03-23T04:05:40;15.00;99.90
13049;DHT22;6591;51.446;5.404;2023-03-23T04:08:08;15.00;99.90
13049;DHT22;6591;51.446;5.404;2023-03-23T04:10:34;15.00;99.90
13049;DHT22;6591;51.446;5.404;2023-03-23T04:13:01;15.00;99.90
13049;DHT22;6591;51.446;5.404;2023-03-23T04:15:46;15.00;99.90
13049;DHT22;6591;51.446;5.404;2023-03-23T04:18:14;15.00;99.90
13049;DHT22;6591;51.446;5.404;2023-03-23T04:20:47;15.00;99.90
13049;DHT22;6591;51.446;5.404;2023-03-23T04:23:18;15.00;99.90
13049;DHT22;6591;51.446;5.404;2023-03-23T04:25:50;15.00;99.90
13049;DHT22;6591;51.446;5.404;2023-03-23T04:28:17;15.00;99.90
13049;DHT22;6591;51.446;5.404;2023-03-23T04:31:04;15.00;99.90
13049;DHT22;6591;51.446;5.404;2023-03-23T04:33:30;15.00;99.90
13049;DHT22;6591;51.446;5.404;2023-03-23T04:36:00;15.00;99.90
13049;DHT22;6591;51.446;5.404;2023-03-23T04:38:36;15.00;99.90
13049;DHT22;6591;51.446;5.404;2023-03-23T04:41:10;15.00;99.90
13049;DHT22;6591;51.446;5.404;2023-03-23T04:43:59;15.00;99.90
13049;DHT22;6591;51.446;5.404;2023-03-23T04:46:40;15.00;99.90
13049;DHT22;6591;51.446;5.404;2023-03-23T04:49:10;15.00;99.90
13049;DHT22;6591;51.446;5.404;2023-03-23T04:51:39;15.00;99.90
13049;DHT22;6591;51.446;5.404;2023-03-23T04:54:23;15.00;99.90
13049;DHT22;6591;51.446;5.404;2023-03-23T04:56:54;15.00;99.90
13049;DHT22;6591;51.446;5.404;2023-03-23T04:59:21;15.00;99.90
13049;DHT22;6591;51.446;5.404;2023-03-23T05:02:19;15.00;99.90
13049;DHT22;6591;51.446;5.404;2023-03-23T05:04:46;15.00;99.90
13049;DHT22;6591;51.446;5.404;2023-03-23T05:07:19;15.00;99.90
13049;DHT22;6591;51.446;5.404;2023-03-23T05:09:48;14.90;99.90
13049;DHT22;6591;51.446;5.404;2023-03-23T05:12:17;14.90;99.90
13049;DHT22;6591;51.446;5.404;2023-03-23T05:14:59;14.90;99.90
13049;DHT22;6591;51.446;5.404;2023-03-23T05:17:28;14.90;99.90
13049;DHT22;6591;51.446;5.404;2023-03-23T05:19:58;14.90;99.90
13049;DHT22;6591;51.446;5.404;2023-03-23T05:22:35;14.90;99.90
13049;DHT22;6591;51.446;5.404;2023-03-23T05:25:05;14.90;99.90
13049;DHT22;6591;51.446;5.404;2023-03-23T05:27:37;14.90;99.90
13049;DHT22;6591;51.446;5.404;2023-03-23T05:30:15;14.90;99.90
13049;DHT22;6591;51.446;5.404;2023-03-23T05:32:44;14.80;99.90
13049;DHT22;6591;51.446;5.404;2023-03-23T05:35:29;14.80;99.90
13049;DHT22;6591;51.446;5.404;2023-03-23T05:37:56;14.70;99.90
13049;DHT22;6591;51.446;5.404;2023-03-23T05:40:26;14.60;99.90
13049;DHT22;6591;51.446;5.404;2023-03-23T05:42:57;14.60;99.90
13049;DHT22;6591;51.446;5.404;2023-03-23T05:45:39;14.60;99.90
13049;DHT22;6591;51.446;5.404;2023-03-23T05:48:05;14.60;99.90
13049;DHT22;6591;51.446;5.404;2023-03-23T05:50:31;14.50;99.90
13049;DHT22;6591;51.446;5.404;2023-03-23T05:52:57;15.20;99.90
13049;DHT22;6591;51.446;5.404;2023-03-23T05:55:25;14.40;99.90
13049;DHT22;6591;51.446;5.404;2023-03-23T05:58:02;14.40;99.90
13049;DHT22;6591;51.446;5.404;2023-03-23T06:00:32;14.40;99.90
13049;DHT22;6591;51.446;5.404;2023-03-23T06:03:11;14.40;99.90
13049;DHT22;6591;51.446;5.404;2023-03-23T06:05:47;15.50;99.90
13049;DHT22;6591;51.446;5.404;2023-03-23T06:08:17;14.30;99.90
13049;DHT22;6591;51.446;5.404;2023-03-23T06:10:43;16.20;99.90
13049;DHT22;6591;51.446;5.404;2023-03-23T06:13:11;15.10;99.90
13049;DHT22;6591;51.446;5.404;2023-03-23T06:15:44;14.30;99.90
13049;DHT22;6591;51.446;5.404;2023-03-23T06:18:29;14.30;99.90
13049;DHT22;6591;51.446;5.404;2023-03-23T06:21:14;14.30;99.90
13049;DHT22;6591;51.446;5.404;2023-03-23T06:23:53;14.30;99.90
13049;DHT22;6591;51.446;5.404;2023-03-23T06:26:27;14.40;99.90
13049;DHT22;6591;51.446;5.404;2023-03-23T06:28:59;14.40;99.90
13049;DHT22;6591;51.446;5.404;2023-03-23T06:31:27;14.40;99.90
13049;DHT22;6591;51.446;5.404;2023-03-23T06:33:55;14.40;99.90
13049;DHT22;6591;51.446;5.404;2023-03-23T06:36:24;14.50;99.90
13049;DHT22;6591;51.446;5.404;2023-03-23T06:39:10;12.70;99.90
13049;DHT22;6591;51.446;5.404;2023-03-23T06:41:56;14.60;99.90
13049;DHT22;6591;51.446;5.404;2023-03-23T06:44:27;14.60;99.90
13049;DHT22;6591;51.446;5.404;2023-03-23T06:46:53;14.60;99.90
13049;DHT22;6591;51.446;5.404;2023-03-23T06:49:26;14.70;99.90
13049;DHT22;6591;51.446;5.404;2023-03-23T06:52:08;14.70;99.90
13049;DHT22;6591;51.446;5.404;2023-03-23T06:54:34;14.70;99.90
13049;DHT22;6591;51.446;5.404;2023-03-23T06:57:02;14.70;99.90
13049;DHT22;6591;51.446;5.404;2023-03-23T06:59:28;14.70;99.90
13049;DHT22;6591;51.446;5.404;2023-03-23T07:01:54;14.70;99.90
13049;DHT22;6591;51.446;5.404;2023-03-23T07:04:20;14.60;99.90
13049;DHT22;6591;51.446;5.404;2023-03-23T07:07:16;14.60;99.90
13049;DHT22;6591;51.446;5.404;2023-03-23T07:09:50;14.40;99.90
13049;DHT22;6591;51.446;5.404;2023-03-23T07:12:21;14.40;99.90
13049;DHT22;6591;51.446;5.404;2023-03-23T07:14:49;14.40;99.90
13049;DHT22;6591;51.446;5.404;2023-03-23T07:17:15;14.10;99.90
13049;DHT22;6591;51.446;5.404;2023-03-23T07:20:12;14.00;99.90
13049;DHT22;6591;51.446;5.404;2023-03-23T07:22:41;13.90;99.90
13049;DHT22;6591;51.446;5.404;2023-03-23T07:25:19;13.80;99.90
13049;DHT22;6591;51.446;5.404;2023-03-23T07:27:51;13.70;99.90
13049;DHT22;6591;51.446;5.404;2023-03-23T07:30:18;14.50;99.90
13049;DHT22;6591;51.446;5.404;2023-03-23T07:32:44;13.60;99.90
13049;DHT22;6591;51.446;5.404;2023-03-23T07:35:11;13.50;99.90
13049;DHT22;6591;51.446;5.404;2023-03-23T07:38:04;13.50;99.90
13049;DHT22;6591;51.446;5.404;2023-03-23T07:40:33;14.10;99.90
13049;DHT22;6591;51.446;5.404;2023-03-23T07:43:05;13.40;99.90
13049;DHT22;6591;51.446;5.404;2023-03-23T07:45:52;13.40;99.90
13049;DHT22;6591;51.446;5.404;2023-03-23T07:48:21;13.20;99.90
13049;DHT22;6591;51.446;5.404;2023-03-23T07:50:48;12.40;99.90
13049;DHT22;6591;51.446;5.404;2023-03-23T07:53:15;14.70;99.90
13049;DHT22;6591;51.446;5.404;2023-03-23T07:55:44;13.80;99.90
13049;DHT22;6591;51.446;5.404;2023-03-23T07:58:42;12.90;99.90
13049;DHT22;6591;51.446;5.404;2023-03-23T08:01:10;11.80;99.90
13049;DHT22;6591;51.446;5.404;2023-03-23T08:03:37;12.70;99.90
13049;DHT22;6591;51.446;5.404;2023-03-23T08:06:32;12.70;99.90
13049;DHT22;6591;51.446;5.404;2023-03-23T08:09:17;12.90;99.90
13049;DHT22;6591;51.446;5.404;2023-03-23T08:12:10;12.20;99.90
13049;DHT22;6591;51.446;5.404;2023-03-23T08:14:39;12.60;99.90
13049;DHT22;6591;51.446;5.404;2023-03-23T08:17:34;12.50;99.90
13049;DHT22;6591;51.446;5.404;2023-03-23T08:20:24;12.70;99.90
13049;DHT22;6591;51.446;5.404;2023-03-23T08:23:14;13.20;99.90
13049;DHT22;6591;51.446;5.404;2023-03-23T08:26:09;12.60;99.90
13049;DHT22;6591;51.446;5.404;2023-03-23T08:28:55;12.50;99.90
13049;DHT22;6591;51.446;5.404;2023-03-23T08:31:44;12.50;99.90
13049;DHT22;6591;51.446;5.404;2023-03-23T08:34:27;13.30;99.90
13049;DHT22;6591;51.446;5.404;2023-03-23T08:37:06;12.50;99.90
13049;DHT22;6591;51.446;5.404;2023-03-23T08:39:56;12.50;99.90
13049;DHT22;6591;51.446;5.404;2023-03-23T08:42:48;13.80;99.90
13049;DHT22;6591;51.446;5.404;2023-03-23T08:45:44;12.60;99.90
13049;DHT22;6591;51.446;5.404;2023-03-23T08:48:13;12.90;99.90
13049;DHT22;6591;51.446;5.404;2023-03-23T08:50:40;12.60;99.90
13049;DHT22;6591;51.446;5.404;2023-03-23T08:53:25;12.70;99.90
13049;DHT22;6591;51.446;5.404;2023-03-23T08:56:26;13.10;99.90
13049;DHT22;6591;51.446;5.404;2023-03-23T08:59:07;12.80;99.90
13049;DHT22;6591;51.446;5.404;2023-03-23T09:01:55;13.70;99.90
13049;DHT22;6591;51.446;5.404;2023-03-23T09:04:43;12.90;99.90
13049;DHT22;6591;51.446;5.404;2023-03-23T09:07:24;13.50;99.90
13049;DHT22;6591;51.446;5.404;2023-03-23T09:09:51;12.90;99.90
13049;DHT22;6591;51.446;5.404;2023-03-23T09:12:17;13.50;99.90
13049;DHT22;6591;51.446;5.404;2023-03-23T09:14:43;13.00;99.90
13049;DHT22;6591;51.446;5.404;2023-03-23T09:17:08;13.10;99.90
13049;DHT22;6591;51.446;5.404;2023-03-23T09:19:38;13.10;99.90
13049;DHT22;6591;51.446;5.404;2023-03-23T09:22:05;13.10;99.90
13049;DHT22;6591;51.446;5.404;2023-03-23T09:24:31;13.20;99.90
13049;DHT22;6591;51.446;5.404;2023-03-23T09:26:57;13.20;99.90
13049;DHT22;6591;51.446;5.404;2023-03-23T09:29:26;13.60;99.90
13049;DHT22;6591;51.446;5.404;2023-03-23T09:31:55;13.20;99.90
13049;DHT22;6591;51.446;5.404;2023-03-23T09:34:22;13.30;99.90
13049;DHT22;6591;51.446;5.404;2023-03-23T09:36:48;14.40;99.90
13049;DHT22;6591;51.446;5.404;2023-03-23T09:39:15;13.70;99.90
13049;DHT22;6591;51.446;5.404;2023-03-23T09:50:28;13.60;99.90
13049;DHT22;6591;51.446;5.404;2023-03-23T09:53:10;13.80;99.90
13049;DHT22;6591;51.446;5.404;2023-03-23T09:55:50;13.80;99.90
13049;DHT22;6591;51.446;5.404;2023-03-23T09:58:24;13.90;99.90
13049;DHT22;6591;51.446;5.404;2023-03-23T10:01:08;13.90;99.90
13049;DHT22;6591;51.446;5.404;2023-03-23T10:03:45;13.90;99.90
13049;DHT22;6591;51.446;5.404;2023-03-23T10:06:15;14.00;99.90
13049;DHT22;6591;51.446;5.404;2023-03-23T10:08:52;14.10;99.90
13049;DHT22;6591;51.446;5.404;2023-03-23T10:14:18;14.40;99.90
13049;DHT22;6591;51.446;5.404;2023-03-23T10:20:32;14.80;99.90
13049;DHT22;6591;51.446;5.404;2023-03-23T10:29:26;15.50;99.90
13049;DHT22;6591;51.446;5.404;2023-03-23T10:34:50;15.90;99.90
13049;DHT22;6591;51.446;5.404;2023-03-23T10:37:34;16.10;99.90
13049;DHT22;6591;51.446;5.404;2023-03-23T10:40:06;16.30;99.90
13049;DHT22;6591;51.446;5.404;2023-03-23T10:42:43;16.40;99.90
13049;DHT22;6591;51.446;5.404;2023-03-23T10:45:27;16.60;99.90
13049;DHT22;6591;51.446;5.404;2023-03-23T10:48:13;16.70;99.90
13049;DHT22;6591;51.446;5.404;2023-03-23T10:50:41;16.80;99.90
13049;DHT22;6591;51.446;5.404;2023-03-23T10:53:37;17.00;99.90
13049;DHT22;6591;51.446;5.404;2023-03-23T10:56:17;17.00;99.90
13049;DHT22;6591;51.446;5.404;2023-03-23T10:58:48;17.10;99.90
13049;DHT22;6591;51.446;5.404;2023-03-23T11:01:14;17.20;99.90
13049;DHT22;6591;51.446;5.404;2023-03-23T11:04:14;17.20;99.90
13049;DHT22;6591;51.446;5.404;2023-03-23T11:06:51;17.20;99.90
13049;DHT22;6591;51.446;5.404;2023-03-23T11:09:50;17.20;99.90
13049;DHT22;6591;51.446;5.404;2023-03-23T11:12:20;17.20;99.90
13049;DHT22;6591;51.446;5.404;2023-03-23T11:14:46;17.20;99.90
13049;DHT22;6591;51.446;5.404;2023-03-23T11:17:23;17.30;99.90
13049;DHT22;6591;51.446;5.404;2023-03-23T11:19:51;17.30;99.90
13049;DHT22;6591;51.446;5.404;2023-03-23T11:22:27;17.40;99.90
13049;DHT22;6591;51.446;5.404;2023-03-23T11:25:04;17.40;99.90
13049;DHT22;6591;51.446;5.404;2023-03-23T11:27:32;17.50;99.90
13049;DHT22;6591;51.446;5.404;2023-03-23T11:32:43;17.70;99.90
13049;DHT22;6591;51.446;5.404;2023-03-23T11:35:21;17.70;99.90
13049;DHT22;6591;51.446;5.404;2023-03-23T11:37:56;17.80;99.90
13049;DHT22;6591;51.446;5.404;2023-03-23T11:40:27;17.80;99.90
13049;DHT22;6591;51.446;5.404;2023-03-23T11:43:13;18.20;99.90
13049;DHT22;6591;51.446;5.404;2023-03-23T11:45:58;17.90;99.90
13049;DHT22;6591;51.446;5.404;2023-03-23T11:48:44;18.00;99.90
13049;DHT22;6591;51.446;5.404;2023-03-23T11:51:41;18.10;99.90
13049;DHT22;6591;51.446;5.404;2023-03-23T11:54:30;18.10;99.90
13049;DHT22;6591;51.446;5.404;2023-03-23T11:56:59;18.30;99.90
13049;DHT22;6591;51.446;5.404;2023-03-23T11:59:35;18.40;99.90
13049;DHT22;6591;51.446;5.404;2023-03-23T12:02:26;18.40;99.90
13049;DHT22;6591;51.446;5.404;2023-03-23T12:06:03;18.50;99.90
13049;DHT22;6591;51.446;5.404;2023-03-23T12:11:30;18.80;99.90
13049;DHT22;6591;51.446;5.404;2023-03-23T12:14:14;18.90;99.90
13049;DHT22;6591;51.446;5.404;2023-03-23T12:20:16;19.30;99.90
13049;DHT22;6591;51.446;5.404;2023-03-23T12:26:17;19.40;99.90
13049;DHT22;6591;51.446;5.404;2023-03-23T12:32:13;19.50;99.90
13049;DHT22;6591;51.446;5.404;2023-03-23T12:43:20;19.90;99.90
13049;DHT22;6591;51.446;5.404;2023-03-23T12:49:40;19.90;99.90
13049;DHT22;6591;51.446;5.404;2023-03-23T12:52:23;20.00;99.90
13049;DHT22;6591;51.446;5.404;2023-03-23T12:58:26;20.10;99.90
13049;DHT22;6591;51.446;5.404;2023-03-23T13:01:06;20.20;99.90
13049;DHT22;6591;51.446;5.404;2023-03-23T13:09:01;20.30;99.90
13049;DHT22;6591;51.446;5.404;2023-03-23T13:11:51;20.40;99.90
13049;DHT22;6591;51.446;5.404;2023-03-23T13:14:43;20.50;99.90
13049;DHT22;6591;51.446;5.404;2023-03-23T13:20:40;20.40;99.90
13049;DHT22;6591;51.446;5.404;2023-03-23T13:23:27;20.40;99.90
13049;DHT22;6591;51.446;5.404;2023-03-23T13:26:09;20.40;99.90
13049;DHT22;6591;51.446;5.404;2023-03-23T13:28:55;20.30;99.90
13049;DHT22;6591;51.446;5.404;2023-03-23T13:31:30;20.30;99.90
13049;DHT22;6591;51.446;5.404;2023-03-23T13:36:37;20.00;99.90
13049;DHT22;6591;51.446;5.404;2023-03-23T13:39:20;19.90;99.90
13049;DHT22;6591;51.446;5.404;2023-03-23T13:55:40;18.00;99.90
13049;DHT22;6591;51.446;5.404;2023-03-23T13:58:26;17.50;99.90
13049;DHT22;6591;51.446;5.404;2023-03-23T14:01:12;17.00;99.90
13049;DHT22;6591;51.446;5.404;2023-03-23T14:03:46;16.60;99.90
13049;DHT22;6591;51.446;5.404;2023-03-23T14:06:35;16.30;99.90
13049;DHT22;6591;51.446;5.404;2023-03-23T14:09:32;16.10;99.90
13049;DHT22;6591;51.446;5.404;2023-03-23T14:12:05;15.90;99.90
13049;DHT22;6591;51.446;5.404;2023-03-23T14:14:45;14.70;99.90
13049;DHT22;6591;51.446;5.404;2023-03-23T14:19:50;17.00;99.90
13049;DHT22;6591;51.446;5.404;2023-03-23T14:22:26;15.90;99.90
13049;DHT22;6591;51.446;5.404;2023-03-23T14:25:12;16.00;99.90
13049;DHT22;6591;51.446;5.404;2023-03-23T14:27:44;16.00;99.90
13049;DHT22;6591;51.446;5.404;2023-03-23T14:30:16;16.00;99.90
13049;DHT22;6591;51.446;5.404;2023-03-23T14:32:45;16.10;99.90
13049;DHT22;6591;51.446;5.404;2023-03-23T14:35:33;16.10;99.90
13049;DHT22;6591;51.446;5.404;2023-03-23T14:38:02;16.10;99.90
13049;DHT22;6591;51.446;5.404;2023-03-23T14:40:29;16.10;99.90
13049;DHT22;6591;51.446;5.404;2023-03-23T14:42:57;16.10;99.90
13049;DHT22;6591;51.446;5.404;2023-03-23T14:45:25;16.10;99.90
13049;DHT22;6591;51.446;5.404;2023-03-23T14:48:02;16.10;99.90
13049;DHT22;6591;51.446;5.404;2023-03-23T14:50:40;16.00;99.90
13049;DHT22;6591;51.446;5.404;2023-03-23T14:53:40;16.00;99.90
13049;DHT22;6591;51.446;5.404;2023-03-23T14:56:16;15.90;99.90
13049;DHT22;6591;51.446;5.404;2023-03-23T14:58:53;16.00;99.90
13049;DHT22;6591;51.446;5.404;2023-03-23T15:01:30;16.00;99.90
13049;DHT22;6591;51.446;5.404;2023-03-23T15:04:19;16.20;99.90
13049;DHT22;6591;51.446;5.404;2023-03-23T15:06:58;16.40;99.90
13049;DHT22;6591;51.446;5.404;2023-03-23T15:09:31;16.50;99.90
13049;DHT22;6591;51.446;5.404;2023-03-23T15:12:00;18.00;99.90
13049;DHT22;6591;51.446;5.404;2023-03-23T15:14:49;16.80;99.90
13049;DHT22;6591;51.446;5.404;2023-03-23T15:17:21;16.90;99.90
13049;DHT22;6591;51.446;5.404;2023-03-23T15:19:52;17.00;99.90
13049;DHT22;6591;51.446;5.404;2023-03-23T15:22:30;17.00;99.90
13049;DHT22;6591;51.446;5.404;2023-03-23T15:25:10;17.00;99.90
13049;DHT22;6591;51.446;5.404;2023-03-23T15:27:43;17.00;99.90
13049;DHT22;6591;51.446;5.404;2023-03-23T15:32:55;16.90;99.90
13049;DHT22;6591;51.446;5.404;2023-03-23T15:35:32;16.60;99.90
13049;DHT22;6591;51.446;5.404;2023-03-23T15:38:12;16.40;99.90
13049;DHT22;6591;51.446;5.404;2023-03-23T15:40:43;16.20;99.90
13049;DHT22;6591;51.446;5.404;2023-03-23T15:43:22;16.40;99.90
13049;DHT22;6591;51.446;5.404;2023-03-23T15:46:04;15.80;99.90
13049;DHT22;6591;51.446;5.404;2023-03-23T15:48:50;15.70;99.90
13049;DHT22;6591;51.446;5.404;2023-03-23T15:51:22;15.60;99.90
13049;DHT22;6591;51.446;5.404;2023-03-23T15:53:52;16.60;99.90
13049;DHT22;6591;51.446;5.404;2023-03-23T15:56:19;15.60;99.90
13049;DHT22;6591;51.446;5.404;2023-03-23T15:58:46;15.60;99.90
13049;DHT22;6591;51.446;5.404;2023-03-23T16:04:07;15.80;99.90
13049;DHT22;6591;51.446;5.404;2023-03-23T16:06:37;15.90;99.90
13049;DHT22;6591;51.446;5.404;2023-03-23T16:09:06;16.00;99.90
13049;DHT22;6591;51.446;5.404;2023-03-23T16:11:36;16.10;99.90
13049;DHT22;6591;51.446;5.404;2023-03-23T16:14:03;16.20;99.90
13049;DHT22;6591;51.446;5.404;2023-03-23T16:16:37;16.20;99.90
13049;DHT22;6591;51.446;5.404;2023-03-23T16:19:06;17.00;99.90
13049;DHT22;6591;51.446;5.404;2023-03-23T16:21:34;16.30;99.90
13049;DHT22;6591;51.446;5.404;2023-03-23T16:24:01;16.20;99.90
13049;DHT22;6591;51.446;5.404;2023-03-23T16:26:29;16.20;99.90
13049;DHT22;6591;51.446;5.404;2023-03-23T16:28:56;16.20;99.90
13049;DHT22;6591;51.446;5.404;2023-03-23T16:31:43;16.40;99.90
13049;DHT22;6591;51.446;5.404;2023-03-23T16:34:10;16.20;99.90
13049;DHT22;6591;51.446;5.404;2023-03-23T16:36:37;16.30;99.90
13049;DHT22;6591;51.446;5.404;2023-03-23T16:39:04;16.40;99.90
13049;DHT22;6591;51.446;5.404;2023-03-23T16:41:32;17.20;99.90
13049;DHT22;6591;51.446;5.404;2023-03-23T16:43:59;17.00;99.90
13049;DHT22;6591;51.446;5.404;2023-03-23T16:46:26;17.10;99.90
13049;DHT22;6591;51.446;5.404;2023-03-23T16:48:56;18.00;99.90
13049;DHT22;6591;51.446;5.404;2023-03-23T16:51:23;17.20;99.90
13049;DHT22;6591;51.446;5.404;2023-03-23T16:53:50;17.00;99.90
13049;DHT22;6591;51.446;5.404;2023-03-23T16:56:19;17.40;99.90
13049;DHT22;6591;51.446;5.404;2023-03-23T16:58:46;17.20;99.90
13049;DHT22;6591;51.446;5.404;2023-03-23T17:01:13;17.10;99.90
13049;DHT22;6591;51.446;5.404;2023-03-23T17:03:40;17.10;99.90
13049;DHT22;6591;51.446;5.404;2023-03-23T17:06:09;16.90;99.90
13049;DHT22;6591;51.446;5.404;2023-03-23T17:08:37;16.70;99.90
13049;DHT22;6591;51.446;5.404;2023-03-23T17:11:06;16.60;99.90
13049;DHT22;6591;51.446;5.404;2023-03-23T17:13:33;16.70;99.90
13049;DHT22;6591;51.446;5.404;2023-03-23T17:16:01;17.00;99.90
13049;DHT22;6591;51.446;5.404;2023-03-23T17:18:28;16.30;99.90
13049;DHT22;6591;51.446;5.404;2023-03-23T17:20:55;16.20;99.90
13049;DHT22;6591;51.446;5.404;2023-03-23T17:23:22;16.40;99.90
13049;DHT22;6591;51.446;5.404;2023-03-23T17:25:50;16.70;99.90
13049;DHT22;6591;51.446;5.404;2023-03-23T17:28:17;16.00;99.90
13049;DHT22;6591;51.446;5.404;2023-03-23T17:30:46;15.90;99.90
13049;DHT22;6591;51.446;5.404;2023-03-23T17:33:14;15.90;99.90
13049;DHT22;6591;51.446;5.404;2023-03-23T17:35:41;15.80;99.90
13049;DHT22;6591;51.446;5.404;2023-03-23T17:38:10;16.30;99.90
13049;DHT22;6591;51.446;5.404;2023-03-23T17:40:38;15.50;99.90
13049;DHT22;6591;51.446;5.404;2023-03-23T17:43:05;15.70;99.90
13049;DHT22;6591;51.446;5.404;2023-03-23T17:45:32;15.70;99.90
13049;DHT22;6591;51.446;5.404;2023-03-23T17:47:59;15.60;99.90
13049;DHT22;6591;51.446;5.404;2023-03-23T17:50:27;15.60;99.90
13049;DHT22;6591;51.446;5.404;2023-03-23T17:52:57;15.60;99.90
13049;DHT22;6591;51.446;5.404;2023-03-23T17:55:27;15.60;99.90
13049;DHT22;6591;51.446;5.404;2023-03-23T17:57:56;15.50;99.90
13049;DHT22;6591;51.446;5.404;2023-03-23T18:00:23;15.50;99.90
13049;DHT22;6591;51.446;5.404;2023-03-23T18:02:53;15.50;99.90
13049;DHT22;6591;51.446;5.404;2023-03-23T18:05:20;15.50;99.90
13049;DHT22;6591;51.446;5.404;2023-03-23T18:07:47;15.50;99.90
13049;DHT22;6591;51.446;5.404;2023-03-23T18:10:14;15.50;99.90
13049;DHT22;6591;51.446;5.404;2023-03-23T18:12:41;15.50;99.90
13049;DHT22;6591;51.446;5.404;2023-03-23T18:15:09;15.50;99.90
13049;DHT22;6591;51.446;5.404;2023-03-23T18:17:37;15.50;99.90
13049;DHT22;6591;51.446;5.404;2023-03-23T18:20:05;15.50;99.90
13049;DHT22;6591;51.446;5.404;2023-03-23T18:22:34;15.50;99.90